createdAt,value
2016-11-24T00:00:31.184Z,0
2016-11-24T00:01:10.060Z,0
2016-11-24T00:01:48.893Z,0
2016-11-24T00:02:27.722Z,0
2016-11-24T00:03:06.554Z,0
2016-11-24T00:03:45.385Z,0
2016-11-24T00:04:24.210Z,0
2016-11-24T00:05:03.052Z,0
2016-11-24T00:05:41.881Z,0
2016-11-24T00:06:20.713Z,0
2016-11-24T00:06:59.538Z,0
2016-11-24T00:07:38.368Z,0
2016-11-24T00:08:17.200Z,0
2016-11-24T00:08:56.048Z,0
2016-11-24T00:09:34.879Z,0
2016-11-24T00:10:13.716Z,0
2016-11-24T00:10:52.545Z,0
2016-11-24T00:11:31.378Z,0
2016-11-24T00:12:10.217Z,0
2016-11-24T00:12:49.049Z,0
2016-11-24T00:13:28.235Z,0
2016-11-24T00:14:07.067Z,0
2016-11-24T00:14:45.895Z,0
2016-11-24T00:15:24.723Z,0
2016-11-24T00:16:03.553Z,0
2016-11-24T00:16:42.417Z,0
2016-11-24T00:17:21.248Z,0
2016-11-24T00:18:00.076Z,0
2016-11-24T00:18:38.905Z,0
2016-11-24T00:19:17.745Z,0
2016-11-24T00:19:56.924Z,0
2016-11-24T00:20:35.760Z,0
2016-11-24T00:21:14.591Z,0
2016-11-24T00:21:53.421Z,0
2016-11-24T00:22:32.262Z,0
2016-11-24T00:23:11.093Z,0
2016-11-24T00:23:49.924Z,0
2016-11-24T00:24:28.753Z,0
2016-11-24T00:25:07.595Z,0
2016-11-24T00:25:46.426Z,0
2016-11-24T00:26:25.254Z,0
2016-11-24T00:27:04.122Z,0
2016-11-24T00:27:42.960Z,0
2016-11-24T00:28:21.816Z,0
2016-11-24T00:29:00.648Z,0
2016-11-24T00:29:39.599Z,0
2016-11-24T00:30:18.426Z,0
2016-11-24T00:30:57.258Z,0
2016-11-24T00:31:36.093Z,0
2016-11-24T00:32:14.921Z,0
2016-11-24T00:32:53.749Z,0
2016-11-24T00:33:32.581Z,0
2016-11-24T00:34:11.413Z,0
2016-11-24T00:34:50.249Z,0
2016-11-24T00:35:29.084Z,0
2016-11-24T00:36:07.921Z,0
2016-11-24T00:36:46.759Z,0
2016-11-24T00:37:25.589Z,0
2016-11-24T00:38:04.418Z,0
2016-11-24T00:38:43.278Z,0
2016-11-24T00:39:22.109Z,0
2016-11-24T00:40:00.935Z,0
2016-11-24T00:40:39.768Z,0
2016-11-24T00:41:18.604Z,0
2016-11-24T00:41:57.430Z,0
2016-11-24T00:42:36.325Z,0
2016-11-24T00:43:15.156Z,0
2016-11-24T00:43:53.989Z,0
2016-11-24T00:44:32.817Z,0
2016-11-24T00:45:11.649Z,0
2016-11-24T00:45:50.484Z,0
2016-11-24T00:46:29.319Z,0
2016-11-24T00:47:08.146Z,0
2016-11-24T00:47:46.977Z,0
2016-11-24T00:48:25.808Z,0
2016-11-24T00:49:04.992Z,0
2016-11-24T00:49:43.824Z,0
2016-11-24T00:50:22.688Z,0
2016-11-24T00:51:01.516Z,0
2016-11-24T00:51:40.379Z,0
2016-11-24T00:52:19.211Z,0
2016-11-24T00:52:58.043Z,0
2016-11-24T00:53:36.915Z,0
2016-11-24T00:54:15.744Z,0
2016-11-24T00:54:54.573Z,0
2016-11-24T00:55:33.435Z,0
2016-11-24T00:56:12.268Z,0
2016-11-24T00:56:51.096Z,0
2016-11-24T00:57:29.925Z,0
2016-11-24T00:58:08.758Z,0
2016-11-24T00:58:47.587Z,0
2016-11-24T00:59:26.415Z,0
2016-11-24T01:00:05.279Z,0
2016-11-24T01:00:44.118Z,0
2016-11-24T01:01:22.944Z,0
2016-11-24T01:02:01.777Z,0
2016-11-24T01:02:40.615Z,0
2016-11-24T01:03:19.458Z,0
2016-11-24T01:03:58.284Z,0
2016-11-24T01:04:37.113Z,0
2016-11-24T01:05:15.943Z,0
2016-11-24T01:05:54.775Z,0
2016-11-24T01:06:33.608Z,0
2016-11-24T01:07:12.436Z,0
2016-11-24T01:07:51.262Z,0
2016-11-24T01:08:30.450Z,0
2016-11-24T01:09:09.281Z,0
2016-11-24T01:09:48.108Z,0
2016-11-24T01:10:26.950Z,0
2016-11-24T01:11:06.136Z,0
2016-11-24T01:11:44.965Z,0
2016-11-24T01:12:23.795Z,0
2016-11-24T01:13:02.623Z,0
2016-11-24T01:13:41.492Z,0
2016-11-24T01:14:20.325Z,0
2016-11-24T01:14:59.154Z,0
2016-11-24T01:15:37.985Z,0
2016-11-24T01:16:16.815Z,0
2016-11-24T01:16:55.642Z,0
2016-11-24T01:17:34.469Z,0
2016-11-24T01:18:13.297Z,0
2016-11-24T01:18:52.126Z,0
2016-11-24T01:19:30.956Z,0
2016-11-24T01:20:09.783Z,0
2016-11-24T01:20:48.612Z,0
2016-11-24T01:21:27.442Z,0
2016-11-24T01:22:06.273Z,0
2016-11-24T01:22:45.099Z,0
2016-11-24T01:23:23.928Z,0
2016-11-24T01:24:02.782Z,0
2016-11-24T01:24:41.612Z,0
2016-11-24T01:25:20.442Z,0
2016-11-24T01:25:59.273Z,0
2016-11-24T01:26:38.107Z,0
2016-11-24T01:27:17.291Z,0
2016-11-24T01:27:56.120Z,0
2016-11-24T01:28:34.953Z,0
2016-11-24T01:29:13.781Z,0
2016-11-24T01:29:52.611Z,0
2016-11-24T01:30:31.468Z,0
2016-11-24T01:31:10.297Z,0
2016-11-24T01:31:49.122Z,0
2016-11-24T01:32:27.951Z,0
2016-11-24T01:33:06.783Z,0
2016-11-24T01:33:45.609Z,0
2016-11-24T01:34:24.449Z,0
2016-11-24T01:35:03.276Z,0
2016-11-24T01:35:42.115Z,0
2016-11-24T01:36:20.944Z,0
2016-11-24T01:36:59.773Z,0
2016-11-24T01:37:38.603Z,0
2016-11-24T01:38:17.466Z,0
2016-11-24T01:38:56.297Z,0
2016-11-24T01:39:35.127Z,0
2016-11-24T01:40:13.956Z,0
2016-11-24T01:40:52.792Z,0
2016-11-24T01:41:31.623Z,0
2016-11-24T01:42:10.455Z,0
2016-11-24T01:42:49.284Z,0
2016-11-24T01:43:28.119Z,0
2016-11-24T01:44:06.948Z,0
2016-11-24T01:44:45.774Z,0
2016-11-24T01:45:24.608Z,0
2016-11-24T01:46:03.441Z,0
2016-11-24T01:46:42.279Z,0
2016-11-24T01:47:21.110Z,0
2016-11-24T01:47:59.946Z,0
2016-11-24T01:48:39.133Z,0
2016-11-24T01:49:17.964Z,0
2016-11-24T01:49:56.800Z,0
2016-11-24T01:50:35.638Z,0
2016-11-24T01:51:14.464Z,0
2016-11-24T01:51:53.292Z,0
2016-11-24T01:52:32.128Z,0
2016-11-24T01:53:10.986Z,0
2016-11-24T01:53:49.813Z,0
2016-11-24T01:54:28.643Z,0
2016-11-24T01:55:07.821Z,0
2016-11-24T01:55:46.652Z,0
2016-11-24T01:56:25.482Z,0
2016-11-24T01:57:04.327Z,0
2016-11-24T01:57:43.186Z,0
2016-11-24T01:58:22.023Z,0
2016-11-24T01:59:00.850Z,0
2016-11-24T01:59:39.681Z,0
2016-11-24T02:00:18.527Z,0
2016-11-24T02:00:57.368Z,0
2016-11-24T02:01:36.200Z,0
2016-11-24T02:02:15.028Z,0
2016-11-24T02:02:53.857Z,0
2016-11-24T02:03:32.685Z,0
2016-11-24T02:04:11.516Z,0
2016-11-24T02:04:50.344Z,0
2016-11-24T02:05:29.174Z,0
2016-11-24T02:06:08.007Z,0
2016-11-24T02:06:46.840Z,0
2016-11-24T02:07:25.674Z,0
2016-11-24T02:08:04.504Z,0
2016-11-24T02:08:43.332Z,0
2016-11-24T02:09:22.164Z,0
2016-11-24T02:10:00.991Z,0
2016-11-24T02:10:39.827Z,0
2016-11-24T02:11:18.664Z,0
2016-11-24T02:11:57.498Z,0
2016-11-24T02:12:36.351Z,0
2016-11-24T02:13:15.177Z,0
2016-11-24T02:13:54.364Z,0
2016-11-24T02:14:33.190Z,0
2016-11-24T02:15:12.021Z,0
2016-11-24T02:15:50.852Z,0
2016-11-24T02:16:29.680Z,0
2016-11-24T02:17:08.514Z,0
2016-11-24T02:17:47.343Z,0
2016-11-24T02:18:26.170Z,0
2016-11-24T02:19:05.010Z,0
2016-11-24T02:19:43.840Z,0
2016-11-24T02:20:23.028Z,0
2016-11-24T02:21:01.870Z,0
2016-11-24T02:21:40.708Z,0
2016-11-24T02:22:19.536Z,0
2016-11-24T02:22:58.725Z,0
2016-11-24T02:23:37.554Z,0
2016-11-24T02:24:16.388Z,0
2016-11-24T02:24:55.221Z,0
2016-11-24T02:25:34.046Z,0
2016-11-24T02:26:12.883Z,0
2016-11-24T02:26:51.713Z,0
2016-11-24T02:27:30.541Z,0
2016-11-24T02:28:09.381Z,0
2016-11-24T02:28:48.207Z,0
2016-11-24T02:29:27.035Z,0
2016-11-24T02:30:05.860Z,0
2016-11-24T02:30:44.690Z,0
2016-11-24T02:31:23.548Z,0
2016-11-24T02:32:02.377Z,0
2016-11-24T02:32:41.216Z,0
2016-11-24T02:33:20.070Z,0
2016-11-24T02:33:58.901Z,0
2016-11-24T02:34:37.742Z,0
2016-11-24T02:35:16.567Z,0
2016-11-24T02:35:55.394Z,0
2016-11-24T02:36:34.340Z,0
2016-11-24T02:37:13.206Z,0
2016-11-24T02:37:52.033Z,0
2016-11-24T02:38:30.892Z,0
2016-11-24T02:39:09.722Z,0
2016-11-24T02:39:48.560Z,0
2016-11-24T02:40:27.393Z,0
2016-11-24T02:41:06.222Z,0
2016-11-24T02:41:45.049Z,0
2016-11-24T02:42:23.879Z,0
2016-11-24T02:43:02.711Z,0
2016-11-24T02:43:41.541Z,0
2016-11-24T02:44:20.345Z,0
2016-11-24T02:44:59.130Z,0
2016-11-24T02:45:37.924Z,0
2016-11-24T02:46:16.714Z,0
2016-11-24T02:46:55.541Z,0
2016-11-24T02:47:34.703Z,0
2016-11-24T02:48:13.494Z,0
2016-11-24T02:48:52.291Z,0
2016-11-24T02:49:31.074Z,0
2016-11-24T02:50:09.869Z,0
2016-11-24T02:50:48.684Z,0
2016-11-24T02:51:27.470Z,0
2016-11-24T02:52:06.260Z,0
2016-11-24T02:52:45.052Z,0
2016-11-24T02:53:23.847Z,0
2016-11-24T02:54:02.641Z,0
2016-11-24T02:54:41.441Z,0
2016-11-24T02:55:20.228Z,0
2016-11-24T02:55:59.030Z,0
2016-11-24T02:56:37.814Z,0
2016-11-24T02:57:16.602Z,0
2016-11-24T02:57:55.391Z,0
2016-11-24T02:58:34.179Z,0
2016-11-24T02:59:12.964Z,0
2016-11-24T02:59:51.754Z,0
2016-11-24T03:00:30.546Z,0
2016-11-24T03:01:09.468Z,0
2016-11-24T03:01:48.259Z,0
2016-11-24T03:02:27.044Z,0
2016-11-24T03:03:05.833Z,0
2016-11-24T03:03:44.976Z,0
2016-11-24T03:04:23.760Z,0
2016-11-24T03:05:02.546Z,0
2016-11-24T03:05:41.337Z,0
2016-11-24T03:06:20.129Z,0
2016-11-24T03:06:58.917Z,0
2016-11-24T03:07:37.708Z,0
2016-11-24T03:08:16.496Z,0
2016-11-24T03:08:55.283Z,0
2016-11-24T03:09:34.078Z,0
2016-11-24T03:10:12.870Z,0
2016-11-24T03:10:51.659Z,0
2016-11-24T03:11:30.447Z,0
2016-11-24T03:12:09.232Z,0
2016-11-24T03:12:48.018Z,0
2016-11-24T03:13:26.839Z,0
2016-11-24T03:14:05.635Z,0
2016-11-24T03:14:44.426Z,0
2016-11-24T03:15:23.214Z,0
2016-11-24T03:16:02.001Z,0
2016-11-24T03:16:40.787Z,0
2016-11-24T03:17:19.575Z,0
2016-11-24T03:17:58.362Z,0
2016-11-24T03:18:37.153Z,0
2016-11-24T03:19:15.938Z,0
2016-11-24T03:19:54.730Z,0
2016-11-24T03:20:33.517Z,0
2016-11-24T03:21:12.310Z,0
2016-11-24T03:21:51.095Z,0
2016-11-24T03:22:29.879Z,0
2016-11-24T03:23:08.673Z,0
2016-11-24T03:23:47.464Z,0
2016-11-24T03:24:26.256Z,0
2016-11-24T03:25:05.045Z,0
2016-11-24T03:25:43.836Z,0
2016-11-24T03:26:22.626Z,0
2016-11-24T03:27:01.414Z,0
2016-11-24T03:27:40.203Z,0
2016-11-24T03:28:19.002Z,0
2016-11-24T03:28:57.789Z,0
2016-11-24T03:29:36.579Z,0
2016-11-24T03:30:15.401Z,0
2016-11-24T03:30:54.189Z,0
2016-11-24T03:31:32.973Z,0
2016-11-24T03:32:11.757Z,0
2016-11-24T03:32:50.544Z,0
2016-11-24T03:33:29.336Z,0
2016-11-24T03:34:08.126Z,0
2016-11-24T03:34:46.927Z,0
2016-11-24T03:35:25.711Z,0
2016-11-24T03:36:04.526Z,0
2016-11-24T03:36:43.321Z,0
2016-11-24T03:37:22.113Z,0
2016-11-24T03:38:00.904Z,0
2016-11-24T03:38:39.694Z,0
2016-11-24T03:39:18.485Z,0
2016-11-24T03:39:57.271Z,0
2016-11-24T03:40:36.091Z,0
2016-11-24T03:41:14.882Z,0
2016-11-24T03:41:53.704Z,0
2016-11-24T03:42:32.489Z,0
2016-11-24T03:43:11.277Z,0
2016-11-24T03:43:50.059Z,0
2016-11-24T03:44:28.848Z,0
2016-11-24T03:45:07.636Z,0
2016-11-24T03:45:46.450Z,0
2016-11-24T03:46:25.242Z,0
2016-11-24T03:47:04.035Z,0
2016-11-24T03:47:42.822Z,0
2016-11-24T03:48:21.614Z,0
2016-11-24T03:49:00.434Z,0
2016-11-24T03:49:39.253Z,0
2016-11-24T03:50:18.044Z,0
2016-11-24T03:50:56.837Z,0
2016-11-24T03:51:35.624Z,0
2016-11-24T03:52:14.418Z,0
2016-11-24T03:52:53.203Z,0
2016-11-24T03:53:31.993Z,0
2016-11-24T03:54:10.786Z,0
2016-11-24T03:54:49.578Z,0
2016-11-24T03:55:28.374Z,0
2016-11-24T03:56:07.167Z,0
2016-11-24T03:56:45.960Z,0
2016-11-24T03:57:24.754Z,0
2016-11-24T03:58:03.544Z,0
2016-11-24T03:58:42.331Z,0
2016-11-24T03:59:21.121Z,0
2016-11-24T03:59:59.908Z,0
2016-11-24T04:00:38.696Z,0
2016-11-24T04:01:17.488Z,0
2016-11-24T04:01:56.417Z,0
2016-11-24T04:02:35.238Z,0
2016-11-24T04:03:14.045Z,0
2016-11-24T04:03:52.847Z,0
2016-11-24T04:04:31.636Z,0
2016-11-24T04:05:10.430Z,0
2016-11-24T04:05:49.220Z,0
2016-11-24T04:06:28.013Z,0
2016-11-24T04:07:06.812Z,0
2016-11-24T04:07:45.602Z,0
2016-11-24T04:08:24.389Z,0
2016-11-24T04:09:03.173Z,0
2016-11-24T04:09:41.966Z,0
2016-11-24T04:10:20.762Z,0
2016-11-24T04:10:59.546Z,0
2016-11-24T04:11:38.340Z,0
2016-11-24T04:12:17.128Z,0
2016-11-24T04:12:55.920Z,0
2016-11-24T04:13:34.707Z,0
2016-11-24T04:14:13.488Z,0
2016-11-24T04:14:52.279Z,0
2016-11-24T04:15:31.065Z,0
2016-11-24T04:16:09.851Z,0
2016-11-24T04:16:48.644Z,0
2016-11-24T04:17:27.433Z,0
2016-11-24T04:18:06.248Z,0
2016-11-24T04:18:45.039Z,0
2016-11-24T04:19:23.831Z,0
2016-11-24T04:20:02.622Z,0
2016-11-24T04:20:41.416Z,0
2016-11-24T04:21:20.209Z,0
2016-11-24T04:21:58.994Z,0
2016-11-24T04:22:37.820Z,0
2016-11-24T04:23:16.607Z,0
2016-11-24T04:23:55.395Z,0
2016-11-24T04:24:34.186Z,0
2016-11-24T04:25:12.975Z,0
2016-11-24T04:25:51.763Z,0
2016-11-24T04:26:30.553Z,0
2016-11-24T04:27:09.343Z,0
2016-11-24T04:27:48.135Z,0
2016-11-24T04:28:26.924Z,0
2016-11-24T04:29:05.718Z,0
2016-11-24T04:29:44.564Z,0
2016-11-24T04:30:23.352Z,0
2016-11-24T04:31:02.141Z,0
2016-11-24T04:31:40.932Z,0
2016-11-24T04:32:19.718Z,0
2016-11-24T04:32:58.502Z,0
2016-11-24T04:33:37.317Z,0
2016-11-24T04:34:16.464Z,0
2016-11-24T04:34:55.253Z,0
2016-11-24T04:35:34.042Z,0
2016-11-24T04:36:12.829Z,0
2016-11-24T04:36:51.620Z,0
2016-11-24T04:37:30.412Z,0
2016-11-24T04:38:09.202Z,0
2016-11-24T04:38:47.984Z,0
2016-11-24T04:39:26.773Z,0
2016-11-24T04:40:05.562Z,0
2016-11-24T04:40:44.351Z,0
2016-11-24T04:41:23.139Z,0
2016-11-24T04:42:01.926Z,0
2016-11-24T04:42:40.715Z,0
2016-11-24T04:43:19.502Z,0
2016-11-24T04:43:58.302Z,0
2016-11-24T04:44:37.095Z,0
2016-11-24T04:45:15.883Z,0
2016-11-24T04:45:54.664Z,0
2016-11-24T04:46:33.451Z,0
2016-11-24T04:47:12.245Z,0
2016-11-24T04:47:51.030Z,0
2016-11-24T04:48:29.814Z,0
2016-11-24T04:49:08.604Z,0
2016-11-24T04:49:47.388Z,0
2016-11-24T04:50:26.172Z,0
2016-11-24T04:51:04.962Z,0
2016-11-24T04:51:43.753Z,0
2016-11-24T04:52:22.540Z,0
2016-11-24T04:53:01.334Z,0
2016-11-24T04:53:40.121Z,0
2016-11-24T04:54:18.906Z,0
2016-11-24T04:54:57.703Z,0
2016-11-24T04:55:36.495Z,0
2016-11-24T04:56:15.290Z,0
2016-11-24T04:56:54.106Z,0
2016-11-24T04:57:32.896Z,0
2016-11-24T04:58:11.683Z,0
2016-11-24T04:58:50.480Z,0
2016-11-24T04:59:29.272Z,0
2016-11-24T05:00:08.058Z,0
2016-11-24T05:00:46.842Z,0
2016-11-24T05:01:25.636Z,0
2016-11-24T05:02:04.424Z,0
2016-11-24T05:02:43.218Z,0
2016-11-24T05:03:22.005Z,0
2016-11-24T05:04:00.796Z,0
2016-11-24T05:04:39.582Z,0
2016-11-24T05:05:18.368Z,0
2016-11-24T05:05:57.155Z,0
2016-11-24T05:06:35.942Z,0
2016-11-24T05:07:14.731Z,0
2016-11-24T05:07:53.520Z,0
2016-11-24T05:08:32.305Z,0
2016-11-24T05:09:11.094Z,0
2016-11-24T05:09:49.882Z,0
2016-11-24T05:10:28.677Z,0
2016-11-24T05:11:07.464Z,0
2016-11-24T05:11:46.288Z,0
2016-11-24T05:12:25.076Z,0
2016-11-24T05:13:03.873Z,0
2016-11-24T05:13:42.670Z,0
2016-11-24T05:14:21.464Z,0
2016-11-24T05:15:00.255Z,0
2016-11-24T05:15:39.043Z,0
2016-11-24T05:16:17.834Z,0
2016-11-24T05:16:56.621Z,0
2016-11-24T05:17:35.409Z,0
2016-11-24T05:18:14.203Z,0
2016-11-24T05:18:53.037Z,0
2016-11-24T05:19:31.834Z,0
2016-11-24T05:20:10.655Z,0
2016-11-24T05:20:49.444Z,0
2016-11-24T05:21:28.232Z,0
2016-11-24T05:22:07.018Z,0
2016-11-24T05:22:45.805Z,0
2016-11-24T05:23:24.593Z,0
2016-11-24T05:24:03.440Z,0
2016-11-24T05:24:42.226Z,0
2016-11-24T05:25:21.012Z,0
2016-11-24T05:25:59.804Z,0
2016-11-24T05:26:38.593Z,0
2016-11-24T05:27:17.377Z,0
2016-11-24T05:27:56.170Z,0
2016-11-24T05:28:34.959Z,0
2016-11-24T05:29:13.745Z,0
2016-11-24T05:29:52.537Z,0
2016-11-24T05:30:31.329Z,0
2016-11-24T05:31:10.130Z,0
2016-11-24T05:31:48.917Z,0
2016-11-24T05:32:27.710Z,0
2016-11-24T05:33:06.859Z,0
2016-11-24T05:33:45.648Z,0
2016-11-24T05:34:24.458Z,0
2016-11-24T05:35:03.246Z,0
2016-11-24T05:35:42.045Z,0
2016-11-24T05:36:20.831Z,0
2016-11-24T05:36:59.614Z,0
2016-11-24T05:37:38.402Z,0
2016-11-24T05:38:17.187Z,0
2016-11-24T05:38:55.977Z,0
2016-11-24T05:39:34.772Z,0
2016-11-24T05:40:13.557Z,0
2016-11-24T05:40:52.344Z,0
2016-11-24T05:41:31.135Z,0
2016-11-24T05:42:09.928Z,0
2016-11-24T05:42:48.717Z,0
2016-11-24T05:43:27.506Z,0
2016-11-24T05:44:06.296Z,0
2016-11-24T05:44:45.090Z,0
2016-11-24T05:45:23.893Z,0
2016-11-24T05:46:02.693Z,0
2016-11-24T05:46:41.482Z,0
2016-11-24T05:47:20.272Z,0
2016-11-24T05:47:59.062Z,0
2016-11-24T05:48:37.878Z,0
2016-11-24T05:49:16.665Z,0
2016-11-24T05:49:55.453Z,0
2016-11-24T05:50:34.241Z,0
2016-11-24T05:51:13.032Z,0
2016-11-24T05:51:51.824Z,0
2016-11-24T05:52:30.611Z,0
2016-11-24T05:53:09.752Z,0
2016-11-24T05:53:48.541Z,0
2016-11-24T05:54:27.328Z,0
2016-11-24T05:55:06.121Z,0
2016-11-24T05:55:44.915Z,0
2016-11-24T05:56:23.707Z,0
2016-11-24T05:57:02.492Z,0
2016-11-24T05:57:41.280Z,0
2016-11-24T05:58:20.072Z,0
2016-11-24T05:58:58.857Z,0
2016-11-24T05:59:37.653Z,0
2016-11-24T06:00:16.439Z,0
2016-11-24T06:00:55.232Z,0
2016-11-24T06:01:34.027Z,0
2016-11-24T06:02:12.823Z,0
2016-11-24T06:02:51.607Z,0
2016-11-24T06:03:30.393Z,0
2016-11-24T06:04:09.181Z,0
2016-11-24T06:04:47.967Z,0
2016-11-24T06:05:26.753Z,0
2016-11-24T06:06:05.539Z,0
2016-11-24T06:06:44.340Z,0
2016-11-24T06:07:23.127Z,0
2016-11-24T06:08:01.919Z,0
2016-11-24T06:08:40.710Z,0
2016-11-24T06:09:19.495Z,0
2016-11-24T06:09:58.631Z,0
2016-11-24T06:10:37.423Z,0
2016-11-24T06:11:16.211Z,0
2016-11-24T06:11:54.999Z,0
2016-11-24T06:12:33.794Z,0
2016-11-24T06:13:12.581Z,0
2016-11-24T06:13:51.365Z,0
2016-11-24T06:14:30.155Z,0
2016-11-24T06:15:08.943Z,0
2016-11-24T06:15:47.763Z,0
2016-11-24T06:16:26.549Z,0
2016-11-24T06:17:05.339Z,0
2016-11-24T06:17:44.126Z,0
2016-11-24T06:18:22.916Z,0
2016-11-24T06:19:01.701Z,0
2016-11-24T06:19:40.491Z,0
2016-11-24T06:20:19.278Z,0
2016-11-24T06:20:58.060Z,0
2016-11-24T06:21:36.851Z,0
2016-11-24T06:22:15.639Z,0
2016-11-24T06:22:54.423Z,0
2016-11-24T06:23:33.218Z,0
2016-11-24T06:24:12.022Z,0
2016-11-24T06:24:50.809Z,0
2016-11-24T06:25:29.598Z,0
2016-11-24T06:26:08.387Z,0
2016-11-24T06:26:47.233Z,0
2016-11-24T06:27:26.047Z,0
2016-11-24T06:28:04.834Z,0
2016-11-24T06:28:43.619Z,0
2016-11-24T06:29:22.406Z,0
2016-11-24T06:30:01.191Z,0
2016-11-24T06:30:39.979Z,0
2016-11-24T06:31:18.770Z,0
2016-11-24T06:31:57.558Z,0
2016-11-24T06:32:36.346Z,0
2016-11-24T06:33:15.137Z,0
2016-11-24T06:33:53.927Z,0
2016-11-24T06:34:32.714Z,0
2016-11-24T06:35:11.502Z,0
2016-11-24T06:35:50.287Z,0
2016-11-24T06:36:29.074Z,0
2016-11-24T06:37:07.901Z,0
2016-11-24T06:37:46.685Z,0
2016-11-24T06:38:25.473Z,4
2016-11-24T06:39:04.259Z,4
2016-11-24T06:39:43.083Z,4
2016-11-24T06:40:21.872Z,4
2016-11-24T06:41:00.656Z,4
2016-11-24T06:41:39.444Z,0
2016-11-24T06:42:18.239Z,0
2016-11-24T06:42:57.028Z,4
2016-11-24T06:43:35.816Z,4
2016-11-24T06:44:14.607Z,4
2016-11-24T06:44:53.395Z,4
2016-11-24T06:45:32.192Z,8
2016-11-24T06:46:10.977Z,4
2016-11-24T06:46:49.793Z,4
2016-11-24T06:47:28.580Z,8
2016-11-24T06:48:07.367Z,8
2016-11-24T06:48:46.155Z,8
2016-11-24T06:49:25.323Z,8
2016-11-24T06:50:04.109Z,12
2016-11-24T06:50:42.903Z,8
2016-11-24T06:51:21.689Z,12
2016-11-24T06:52:00.478Z,12
2016-11-24T06:52:39.305Z,12
2016-11-24T06:53:18.095Z,16
2016-11-24T06:53:56.884Z,16
2016-11-24T06:54:35.672Z,20
2016-11-24T06:55:14.493Z,16
2016-11-24T06:55:53.297Z,20
2016-11-24T06:56:32.087Z,20
2016-11-24T06:57:10.877Z,24
2016-11-24T06:57:49.665Z,24
2016-11-24T06:58:28.450Z,24
2016-11-24T06:59:07.244Z,28
2016-11-24T06:59:46.039Z,32
2016-11-24T07:00:24.829Z,32
2016-11-24T07:01:03.626Z,36
2016-11-24T07:01:42.421Z,36
2016-11-24T07:02:21.208Z,40
2016-11-24T07:02:59.999Z,40
2016-11-24T07:03:38.786Z,44
2016-11-24T07:04:17.576Z,48
2016-11-24T07:04:56.367Z,48
2016-11-24T07:05:35.158Z,48
2016-11-24T07:06:13.945Z,52
2016-11-24T07:06:52.766Z,56
2016-11-24T07:07:31.553Z,60
2016-11-24T07:08:10.379Z,60
2016-11-24T07:08:49.169Z,64
2016-11-24T07:09:27.961Z,68
2016-11-24T07:10:06.756Z,72
2016-11-24T07:10:45.547Z,76
2016-11-24T07:11:24.335Z,80
2016-11-24T07:12:03.129Z,84
2016-11-24T07:12:42.027Z,88
2016-11-24T07:13:20.812Z,92
2016-11-24T07:13:59.610Z,100
2016-11-24T07:14:38.399Z,108
2016-11-24T07:15:17.191Z,112
2016-11-24T07:15:55.979Z,116
2016-11-24T07:16:34.768Z,124
2016-11-24T07:17:13.556Z,136
2016-11-24T07:17:52.358Z,140
2016-11-24T07:18:31.146Z,152
2016-11-24T07:19:09.930Z,156
2016-11-24T07:19:48.721Z,164
2016-11-24T07:20:27.516Z,172
2016-11-24T07:21:06.310Z,180
2016-11-24T07:21:45.094Z,188
2016-11-24T07:22:23.879Z,192
2016-11-24T07:23:02.671Z,204
2016-11-24T07:23:41.457Z,208
2016-11-24T07:24:20.249Z,220
2016-11-24T07:24:59.069Z,224
2016-11-24T07:25:37.861Z,236
2016-11-24T07:26:16.646Z,240
2016-11-24T07:26:55.447Z,248
2016-11-24T07:27:34.230Z,256
2016-11-24T07:28:13.016Z,264
2016-11-24T07:28:51.802Z,272
2016-11-24T07:29:30.592Z,280
2016-11-24T07:30:09.448Z,292
2016-11-24T07:30:48.281Z,304
2016-11-24T07:31:27.071Z,312
2016-11-24T07:32:05.862Z,328
2016-11-24T07:32:44.679Z,336
2016-11-24T07:33:23.467Z,352
2016-11-24T07:34:02.254Z,364
2016-11-24T07:34:41.401Z,380
2016-11-24T07:35:20.197Z,392
2016-11-24T07:35:58.984Z,408
2016-11-24T07:36:37.801Z,424
2016-11-24T07:37:16.591Z,440
2016-11-24T07:37:55.384Z,456
2016-11-24T07:38:34.177Z,472
2016-11-24T07:39:13.024Z,488
2016-11-24T07:39:51.817Z,504
2016-11-24T07:40:30.632Z,520
2016-11-24T07:41:09.423Z,540
2016-11-24T07:41:48.239Z,556
2016-11-24T07:42:27.026Z,580
2016-11-24T07:43:05.816Z,600
2016-11-24T07:43:44.608Z,624
2016-11-24T07:44:23.392Z,648
2016-11-24T07:45:02.184Z,672
2016-11-24T07:45:41.328Z,700
2016-11-24T07:46:20.116Z,724
2016-11-24T07:46:58.938Z,748
2016-11-24T07:47:37.726Z,772
2016-11-24T07:48:16.511Z,796
2016-11-24T07:48:55.404Z,816
2016-11-24T07:49:34.191Z,832
2016-11-24T07:50:12.979Z,852
2016-11-24T07:50:51.767Z,860
2016-11-24T07:51:30.550Z,868
2016-11-24T07:52:09.343Z,864
2016-11-24T07:52:48.135Z,856
2016-11-24T07:53:26.923Z,860
2016-11-24T07:54:05.705Z,856
2016-11-24T07:54:44.501Z,860
2016-11-24T07:55:23.292Z,856
2016-11-24T07:56:02.103Z,852
2016-11-24T07:56:40.893Z,856
2016-11-24T07:57:19.684Z,864
2016-11-24T07:57:58.479Z,876
2016-11-24T07:58:37.268Z,880
2016-11-24T07:59:16.072Z,888
2016-11-24T07:59:54.859Z,896
2016-11-24T08:00:33.645Z,900
2016-11-24T08:01:12.432Z,904
2016-11-24T08:01:51.581Z,908
2016-11-24T08:02:30.372Z,908
2016-11-24T08:03:09.159Z,916
2016-11-24T08:03:47.948Z,920
2016-11-24T08:04:26.735Z,928
2016-11-24T08:05:05.529Z,932
2016-11-24T08:05:44.320Z,940
2016-11-24T08:06:23.105Z,952
2016-11-24T08:07:01.895Z,960
2016-11-24T08:07:40.717Z,968
2016-11-24T08:08:19.507Z,984
2016-11-24T08:08:58.300Z,1000
2016-11-24T08:09:37.093Z,1020
2016-11-24T08:10:15.879Z,1032
2016-11-24T08:10:54.706Z,1052
2016-11-24T08:11:33.491Z,1072
2016-11-24T08:12:12.278Z,1088
2016-11-24T08:12:51.064Z,1112
2016-11-24T08:13:30.206Z,1136
2016-11-24T08:14:08.991Z,1160
2016-11-24T08:14:47.791Z,1180
2016-11-24T08:15:26.579Z,1196
2016-11-24T08:16:05.369Z,1204
2016-11-24T08:16:44.155Z,1224
2016-11-24T08:17:22.954Z,1236
2016-11-24T08:18:01.746Z,1256
2016-11-24T08:18:40.573Z,1284
2016-11-24T08:19:19.360Z,1320
2016-11-24T08:19:58.148Z,1324
2016-11-24T08:20:36.940Z,1328
2016-11-24T08:21:15.732Z,1340
2016-11-24T08:21:54.522Z,1324
2016-11-24T08:22:33.313Z,1308
2016-11-24T08:23:12.107Z,1324
2016-11-24T08:23:50.894Z,1360
2016-11-24T08:24:29.680Z,1392
2016-11-24T08:25:08.468Z,1364
2016-11-24T08:25:47.258Z,1380
2016-11-24T08:26:26.075Z,1356
2016-11-24T08:27:04.862Z,1336
2016-11-24T08:27:43.652Z,1448
2016-11-24T08:28:22.435Z,1492
2016-11-24T08:29:01.228Z,1504
2016-11-24T08:29:40.020Z,1520
2016-11-24T08:30:18.807Z,1528
2016-11-24T08:30:57.594Z,1528
2016-11-24T08:31:36.382Z,1532
2016-11-24T08:32:15.167Z,1540
2016-11-24T08:32:53.957Z,1532
2016-11-24T08:33:32.742Z,1544
2016-11-24T08:34:11.587Z,1544
2016-11-24T08:34:50.373Z,1544
2016-11-24T08:35:29.173Z,1528
2016-11-24T08:36:07.961Z,1508
2016-11-24T08:36:46.756Z,1516
2016-11-24T08:37:25.561Z,1512
2016-11-24T08:38:04.351Z,1496
2016-11-24T08:38:43.148Z,1548
2016-11-24T08:39:21.944Z,1576
2016-11-24T08:40:00.729Z,1512
2016-11-24T08:40:39.517Z,1488
2016-11-24T08:41:18.305Z,1548
2016-11-24T08:41:57.092Z,1584
2016-11-24T08:42:35.886Z,1568
2016-11-24T08:43:14.674Z,1600
2016-11-24T08:43:53.460Z,1612
2016-11-24T08:44:32.247Z,1588
2016-11-24T08:45:11.387Z,1580
2016-11-24T08:45:50.178Z,1580
2016-11-24T08:46:28.970Z,1572
2016-11-24T08:47:07.757Z,1540
2016-11-24T08:47:46.547Z,1524
2016-11-24T08:48:25.335Z,1552
2016-11-24T08:49:04.156Z,1568
2016-11-24T08:49:42.965Z,1576
2016-11-24T08:50:21.754Z,1596
2016-11-24T08:51:00.546Z,1620
2016-11-24T08:51:39.338Z,1656
2016-11-24T08:52:18.130Z,1700
2016-11-24T08:52:56.976Z,1740
2016-11-24T08:53:35.774Z,1772
2016-11-24T08:54:14.567Z,1804
2016-11-24T08:54:53.369Z,1840
2016-11-24T08:55:32.158Z,1856
2016-11-24T08:56:10.955Z,1912
2016-11-24T08:56:49.747Z,1980
2016-11-24T08:57:28.531Z,2008
2016-11-24T08:58:07.674Z,2008
2016-11-24T08:58:46.468Z,2048
2016-11-24T08:59:25.280Z,2056
2016-11-24T09:00:04.070Z,2124
2016-11-24T09:00:42.862Z,2176
2016-11-24T09:01:21.652Z,2212
2016-11-24T09:02:00.443Z,2240
2016-11-24T09:02:39.236Z,2268
2016-11-24T09:03:18.026Z,2304
2016-11-24T09:03:56.813Z,2336
2016-11-24T09:04:35.605Z,2356
2016-11-24T09:05:14.390Z,2392
2016-11-24T09:05:53.179Z,2420
2016-11-24T09:06:31.968Z,2440
2016-11-24T09:07:10.759Z,2456
2016-11-24T09:07:49.597Z,2472
2016-11-24T09:08:28.388Z,2480
2016-11-24T09:09:07.175Z,2496
2016-11-24T09:09:45.961Z,2528
2016-11-24T09:10:24.751Z,2544
2016-11-24T09:11:03.539Z,2560
2016-11-24T09:11:42.324Z,2588
2016-11-24T09:12:21.115Z,2596
2016-11-24T09:12:59.931Z,2608
2016-11-24T09:13:38.721Z,2620
2016-11-24T09:14:17.528Z,2632
2016-11-24T09:14:56.323Z,2648
2016-11-24T09:15:35.114Z,2652
2016-11-24T09:16:14.256Z,2668
2016-11-24T09:16:53.048Z,2680
2016-11-24T09:17:31.838Z,2692
2016-11-24T09:18:10.655Z,2712
2016-11-24T09:18:49.453Z,2736
2016-11-24T09:19:28.249Z,2760
2016-11-24T09:20:07.393Z,2776
2016-11-24T09:20:46.185Z,2792
2016-11-24T09:21:24.972Z,2832